Paige, TX (78659)

3:52 AM CST on December 27, 2014 (GMT -0600)
Circle "D" Subdivision | Change Station
CLOSE
Current Station
Personal Weather Station
Location: Paige, TX
Elevation: 531 ft
Nearby Weather Stations

Elev 531 ft 30.17 °N, 97.22 °W | Updated 4 minutes ago

Overcast
Overcast
65.1 °F
Feels Like 65.1 °F
N
3.2
Wind Variable Wind from SSE

Today
High -- | Low -- °F
--% Chance of Precip.
Yesterday
High -- | Low -- °F
Precip. -- in
7:23 AM 5:35 PM
Waxing Crescent, 35% visible
Pressure 29.98 in
Visibility 4.0 miles
Clouds Scattered Clouds 1400 ft
Mostly Cloudy 2800 ft
Overcast 5000 ft
Dew Point 63 °F
Humidity 94%
Rainfall 0.00 in
Snow Depth Not available.
UV 0 out of 12
Pollen 8.30 out of 12
Air Quality Not available.
Flu Activity Not available.
METAR KGYB 270935Z AUTO 16003KT 4SM BR SCT014 BKN028 OVC050 19/18 A2998 RMK AO2 T01880181

More Conditions Fewer Conditions

Pressure 29.98 in
Visibility 4.0 miles
Clouds Scattered Clouds 1400 ft
Mostly Cloudy 2800 ft
Overcast 5000 ft
Dew Point 63 °F
Humidity 94%
Rainfall 0.00 in
Snow Depth Not available.
UV 0 out of 12
Pollen 8.30 out of 12
Air Quality Not available.
Flu Activity Not available.
METAR KGYB 270935Z AUTO 16003KT 4SM BR SCT014 BKN028 OVC050 19/18 A2998 RMK AO2 T01880181

More Conditions Fewer Conditions

10-Day Weather Forecast

Almanac

Astronomy

Dec. 27, 2014 Rise Set
Actual Time
Civil Twilight
Nautical Twilight
Astronomical Twilight
Moon
Length of Visible Light
Length of Day
Tomorrow will be .
, % of the Moon is Illuminated

Today's Extremes

State Highs State Lows

Community

WunderPhotos

Upload Photos

1,780,869 photos uploaded!

WunderBlogs® & News

Nearby

Air Quality

  Air Quality AQ Index Pollutant
Not available.

Snow Depth

Station Depth Elevation

Earthquake Activity

City Distance Mag. Time & Date
Minimum magnitude displayed is 2.5.

Coastal Water Temperatures

Place Temperature

Nearby Weather Stations